Lenox, Georgia
Current Conditions -  °F | °C
As of 5:30 PM on Tuesday 21 Oct 2014 (Local Time) from KTMA Reporting Station
Clear Clear  
Wind Chill: 78°   Ceiling: Unl
Heat Index: 78°   Visibility: 10mi
Dew Point: 47°   Wind: 7mph
Humidity: 34%   Direction: 300°WNW
Pressure: 29.92"   Gusts: NA
Location:  31.27°N, 83.46°W
Report Text: KTMA 212130Z AUTO 30006KT 10SM CLR 25/09 A2992 RMK AO2 T02540086
Loading
Personal Weather Stations






























Interactive Weather Map
Tropical Storm Tracking
New forecast layout! Learn more

10-Day Weather Forecast

Advertisements
Track Severe Weather on mobile